createdAt,value
2018-05-11T00:00:06.759Z,0.00
2018-05-11T00:01:06.926Z,0.00
2018-05-11T00:02:07.093Z,0.00
2018-05-11T00:03:07.267Z,0.00
2018-05-11T00:04:07.438Z,0.00
2018-05-11T00:05:07.652Z,0.00
2018-05-11T00:06:07.769Z,0.00
2018-05-11T00:07:07.950Z,0.00
2018-05-11T00:08:08.113Z,0.00
2018-05-11T00:09:08.282Z,0.00
2018-05-11T00:10:08.445Z,0.00
2018-05-11T00:11:08.619Z,0.00
2018-05-11T00:12:08.787Z,0.00
2018-05-11T00:13:08.954Z,0.00
2018-05-11T00:14:09.122Z,0.00
2018-05-11T00:15:09.299Z,0.00
2018-05-11T00:16:09.472Z,0.00
2018-05-11T00:17:09.641Z,0.00
2018-05-11T00:18:09.805Z,0.00
2018-05-11T00:19:09.980Z,0.00
2018-05-11T00:20:10.133Z,0.00
2018-05-11T00:21:10.308Z,0.00
2018-05-11T00:22:10.495Z,0.00
2018-05-11T00:23:10.658Z,0.00
2018-05-11T00:24:10.828Z,0.00
2018-05-11T00:25:10.998Z,0.00
2018-05-11T00:26:11.165Z,0.00
2018-05-11T00:27:11.335Z,0.00
2018-05-11T00:28:11.504Z,0.00
2018-05-11T00:29:11.670Z,0.00
2018-05-11T00:30:11.838Z,0.00
2018-05-11T00:31:12.008Z,0.00
2018-05-11T00:32:12.178Z,0.00
2018-05-11T00:33:12.345Z,0.00
2018-05-11T00:34:12.514Z,0.00
2018-05-11T00:35:12.684Z,0.00
2018-05-11T00:36:12.850Z,0.00
2018-05-11T00:37:13.015Z,0.00
2018-05-11T00:38:13.189Z,0.00
2018-05-11T00:39:13.353Z,0.00
2018-05-11T00:40:13.526Z,0.00
2018-05-11T00:41:13.695Z,0.00
2018-05-11T00:42:13.860Z,0.00
2018-05-11T00:43:14.033Z,0.00
2018-05-11T00:44:14.198Z,0.00
2018-05-11T00:45:14.370Z,0.00
2018-05-11T00:46:14.539Z,0.00
2018-05-11T00:47:14.731Z,0.00
2018-05-11T00:48:14.882Z,0.00
2018-05-11T00:49:15.064Z,0.00
2018-05-11T00:50:15.222Z,0.00
2018-05-11T00:51:15.387Z,0.00
2018-05-11T00:52:15.558Z,0.00
2018-05-11T00:53:15.736Z,0.00
2018-05-11T00:54:15.902Z,0.00
2018-05-11T00:55:16.072Z,0.00
2018-05-11T00:56:16.239Z,0.00
2018-05-11T00:57:16.409Z,0.00
2018-05-11T00:58:16.580Z,0.00
2018-05-11T00:59:16.747Z,0.00
2018-05-11T01:00:16.913Z,0.00
2018-05-11T01:01:17.080Z,0.00
2018-05-11T01:02:17.267Z,0.00
2018-05-11T01:03:17.432Z,0.00
2018-05-11T01:04:17.609Z,0.00
2018-05-11T01:05:17.778Z,0.00
2018-05-11T01:06:17.946Z,0.00
2018-05-11T01:07:18.115Z,0.00
2018-05-11T01:08:18.281Z,0.00
2018-05-11T01:09:18.448Z,0.00
2018-05-11T01:10:18.621Z,0.00
2018-05-11T01:11:18.789Z,0.00
2018-05-11T01:12:18.960Z,0.00
2018-05-11T01:13:19.126Z,0.00
2018-05-11T01:14:19.302Z,0.00
2018-05-11T01:15:19.469Z,0.00
2018-05-11T01:16:19.643Z,0.00
2018-05-11T01:17:19.814Z,0.00
2018-05-11T01:18:19.984Z,0.00
2018-05-11T01:19:20.149Z,0.00
2018-05-11T01:20:20.314Z,0.00
2018-05-11T01:21:20.488Z,0.00
2018-05-11T01:22:20.658Z,0.00
2018-05-11T01:23:20.828Z,0.00
2018-05-11T01:24:20.995Z,0.00
2018-05-11T01:25:21.163Z,0.00
2018-05-11T01:26:21.328Z,0.00
2018-05-11T01:27:21.501Z,0.00
2018-05-11T01:28:21.672Z,0.00
2018-05-11T01:29:21.837Z,0.00
2018-05-11T01:30:22.005Z,0.00
2018-05-11T01:31:22.174Z,0.00
2018-05-11T01:32:22.341Z,0.00
2018-05-11T01:33:22.516Z,0.00
2018-05-11T01:34:22.691Z,0.00
2018-05-11T01:35:22.860Z,0.00
2018-05-11T01:36:23.028Z,0.00
2018-05-11T01:37:23.196Z,0.00
2018-05-11T01:38:23.368Z,0.00
2018-05-11T01:39:23.532Z,0.00
2018-05-11T01:40:23.707Z,0.00
2018-05-11T01:41:23.882Z,0.00
2018-05-11T01:42:24.050Z,0.00
2018-05-11T01:43:24.215Z,0.00
2018-05-11T01:44:24.378Z,0.00
2018-05-11T01:45:24.544Z,0.00
2018-05-11T01:46:24.711Z,0.00
2018-05-11T01:47:24.881Z,0.00
2018-05-11T01:48:25.049Z,0.00
2018-05-11T01:49:25.220Z,0.00
2018-05-11T01:50:25.383Z,0.00
2018-05-11T01:51:25.556Z,0.00
2018-05-11T01:52:25.723Z,0.00
2018-05-11T01:53:25.895Z,0.00
2018-05-11T01:54:26.059Z,0.00
2018-05-11T01:55:26.230Z,0.00
2018-05-11T01:56:26.405Z,0.00
2018-05-11T01:57:26.569Z,0.00
2018-05-11T01:58:26.736Z,0.00
2018-05-11T01:59:26.913Z,0.00
2018-05-11T02:00:27.076Z,0.00
2018-05-11T02:01:27.246Z,0.00
2018-05-11T02:02:27.412Z,0.00
2018-05-11T02:03:27.581Z,0.00
2018-05-11T02:04:27.748Z,0.00
2018-05-11T02:05:27.913Z,0.00
2018-05-11T02:06:28.087Z,0.00
2018-05-11T02:07:28.251Z,0.00
2018-05-11T02:08:28.417Z,0.00
2018-05-11T02:09:28.588Z,0.00
2018-05-11T02:10:28.760Z,0.00
2018-05-11T02:11:28.921Z,0.00
2018-05-11T02:12:29.087Z,0.00
2018-05-11T02:13:29.250Z,0.00
2018-05-11T02:14:29.417Z,0.00
2018-05-11T02:15:29.587Z,0.00
2018-05-11T02:16:29.756Z,0.00
2018-05-11T02:17:29.920Z,0.00
2018-05-11T02:18:30.096Z,0.00
2018-05-11T02:19:30.272Z,0.00
2018-05-11T02:20:30.438Z,0.00
2018-05-11T02:21:30.611Z,0.00
2018-05-11T02:22:30.780Z,0.00
2018-05-11T02:23:30.946Z,0.00
2018-05-11T02:24:31.113Z,0.00
2018-05-11T02:25:31.283Z,0.00
2018-05-11T02:26:31.448Z,0.00
2018-05-11T02:27:31.623Z,0.00
2018-05-11T02:28:31.788Z,0.00
2018-05-11T02:29:31.956Z,0.00
2018-05-11T02:30:32.129Z,0.00
2018-05-11T02:31:32.297Z,0.00
2018-05-11T02:32:32.466Z,0.00
2018-05-11T02:33:32.635Z,0.00
2018-05-11T02:34:32.804Z,0.00
2018-05-11T02:35:32.968Z,0.00
2018-05-11T02:36:33.138Z,0.00
2018-05-11T02:37:33.301Z,0.00
2018-05-11T02:38:33.470Z,0.00
2018-05-11T02:39:33.638Z,0.00
2018-05-11T02:40:33.808Z,0.00
2018-05-11T02:41:33.978Z,0.00
2018-05-11T02:42:34.149Z,0.00
2018-05-11T02:43:34.320Z,0.00
2018-05-11T02:44:34.497Z,0.00
2018-05-11T02:45:34.662Z,0.00
2018-05-11T02:46:34.830Z,0.00
2018-05-11T02:47:34.999Z,0.00
2018-05-11T02:48:35.168Z,0.00
2018-05-11T02:49:35.341Z,0.00
2018-05-11T02:50:35.586Z,0.00
2018-05-11T02:51:35.674Z,0.00
2018-05-11T02:52:35.839Z,0.00
2018-05-11T02:53:36.015Z,0.00
2018-05-11T02:54:36.181Z,0.00
2018-05-11T02:55:36.354Z,0.00
2018-05-11T02:56:36.524Z,0.00
2018-05-11T02:57:36.690Z,0.00
2018-05-11T02:58:36.857Z,0.00
2018-05-11T02:59:37.021Z,0.00
2018-05-11T03:00:37.190Z,0.00
2018-05-11T03:01:37.360Z,0.00
2018-05-11T03:02:37.524Z,0.00
2018-05-11T03:03:37.696Z,0.00
2018-05-11T03:04:37.866Z,0.00
2018-05-11T03:05:38.038Z,0.00
2018-05-11T03:06:38.210Z,0.00
2018-05-11T03:07:38.374Z,0.00
2018-05-11T03:08:38.542Z,0.00
2018-05-11T03:09:38.846Z,0.00
2018-05-11T03:10:38.881Z,4.00
2018-05-11T03:11:39.043Z,4.00
2018-05-11T03:12:39.211Z,0.00
2018-05-11T03:13:39.378Z,4.00
2018-05-11T03:14:39.546Z,4.00
2018-05-11T03:15:39.720Z,4.00
2018-05-11T03:16:39.886Z,8.00
2018-05-11T03:17:40.057Z,8.00
2018-05-11T03:18:40.343Z,8.00
2018-05-11T03:19:40.402Z,8.00
2018-05-11T03:20:40.570Z,12.00
2018-05-11T03:21:40.748Z,16.00
2018-05-11T03:22:40.911Z,16.00
2018-05-11T03:23:41.077Z,16.00
2018-05-11T03:24:41.245Z,24.00
2018-05-11T03:25:41.423Z,24.00
2018-05-11T03:26:41.578Z,28.00
2018-05-11T03:27:41.743Z,36.00
2018-05-11T03:28:41.970Z,36.00
2018-05-11T03:29:42.138Z,44.00
2018-05-11T03:30:42.323Z,52.00
2018-05-11T03:31:42.492Z,56.00
2018-05-11T03:32:42.639Z,64.00
2018-05-11T03:33:42.806Z,72.00
2018-05-11T03:34:42.978Z,80.00
2018-05-11T03:35:43.154Z,84.00
2018-05-11T03:36:43.331Z,96.00
2018-05-11T03:37:43.499Z,104.00
2018-05-11T03:38:43.670Z,112.00
2018-05-11T03:39:43.841Z,116.00
2018-05-11T03:40:44.005Z,128.00
2018-05-11T03:41:44.171Z,132.00
2018-05-11T03:42:44.333Z,140.00
2018-05-11T03:43:44.500Z,144.00
2018-05-11T03:44:44.687Z,156.00
2018-05-11T03:45:44.857Z,164.00
2018-05-11T03:46:45.027Z,176.00
2018-05-11T03:47:45.193Z,188.00
2018-05-11T03:48:45.371Z,200.00
2018-05-11T03:49:45.533Z,212.00
2018-05-11T03:50:45.697Z,224.00
2018-05-11T03:51:46.174Z,240.00
2018-05-11T03:52:46.452Z,256.00
2018-05-11T03:53:46.518Z,272.00
2018-05-11T03:54:46.643Z,292.00
2018-05-11T03:55:46.764Z,308.00
2018-05-11T03:56:46.993Z,328.00
2018-05-11T03:57:46.777Z,344.00
2018-05-11T03:58:46.941Z,372.00
2018-05-11T03:59:47.108Z,396.00
2018-05-11T04:00:47.273Z,412.00
2018-05-11T04:01:47.448Z,424.00
2018-05-11T04:02:47.615Z,428.00
2018-05-11T04:03:47.779Z,432.00
2018-05-11T04:04:47.951Z,448.00
2018-05-11T04:05:48.113Z,464.00
2018-05-11T04:06:48.281Z,476.00
2018-05-11T04:07:48.447Z,484.00
2018-05-11T04:08:48.617Z,484.00
2018-05-11T04:09:48.789Z,488.00
2018-05-11T04:10:48.956Z,488.00
2018-05-11T04:11:49.124Z,500.00
2018-05-11T04:12:49.292Z,512.00
2018-05-11T04:13:49.461Z,528.00
2018-05-11T04:14:49.630Z,552.00
2018-05-11T04:15:49.797Z,592.00
2018-05-11T04:16:49.969Z,640.00
2018-05-11T04:17:50.136Z,688.00
2018-05-11T04:18:50.310Z,724.00
2018-05-11T04:19:50.480Z,748.00
2018-05-11T04:20:50.669Z,760.00
2018-05-11T04:21:50.818Z,752.00
2018-05-11T04:22:50.984Z,740.00
2018-05-11T04:23:51.147Z,740.00
2018-05-11T04:24:51.309Z,736.00
2018-05-11T04:25:51.498Z,728.00
2018-05-11T04:26:51.667Z,732.00
2018-05-11T04:27:51.834Z,732.00
2018-05-11T04:28:52.004Z,748.00
2018-05-11T04:29:52.170Z,748.00
2018-05-11T04:30:52.338Z,772.00
2018-05-11T04:31:52.505Z,780.00
2018-05-11T04:32:52.671Z,800.00
2018-05-11T04:33:52.839Z,812.00
2018-05-11T04:34:53.009Z,820.00
2018-05-11T04:35:53.172Z,832.00
2018-05-11T04:36:53.338Z,856.00
2018-05-11T04:37:53.508Z,900.00
2018-05-11T04:38:53.679Z,916.00
2018-05-11T04:39:53.848Z,956.00
2018-05-11T04:40:54.016Z,948.00
2018-05-11T04:41:54.183Z,992.00
2018-05-11T04:42:54.349Z,1060.00
2018-05-11T04:43:54.519Z,1136.00
2018-05-11T04:44:54.694Z,1196.00
2018-05-11T04:45:54.854Z,1244.00
2018-05-11T04:46:55.025Z,1292.00
2018-05-11T04:47:55.213Z,1312.00
2018-05-11T04:48:55.358Z,1372.00
2018-05-11T04:49:55.525Z,1364.00
2018-05-11T04:50:55.695Z,1352.00
2018-05-11T04:51:55.860Z,1384.00
2018-05-11T04:52:56.034Z,1428.00
2018-05-11T04:53:56.201Z,1484.00
2018-05-11T04:54:56.377Z,1524.00
2018-05-11T04:55:56.549Z,1564.00
2018-05-11T04:56:56.712Z,1580.00
2018-05-11T04:57:56.878Z,1560.00
2018-05-11T04:58:57.052Z,1532.00
2018-05-11T04:59:57.219Z,1540.00
2018-05-11T05:00:57.391Z,1584.00
2018-05-11T05:01:57.558Z,1592.00
2018-05-11T05:02:57.727Z,1592.00
2018-05-11T05:03:57.903Z,1616.00
2018-05-11T05:04:58.069Z,1636.00
2018-05-11T05:05:58.235Z,1660.00
2018-05-11T05:06:58.409Z,1720.00
2018-05-11T05:07:58.577Z,1804.00
2018-05-11T05:08:58.746Z,1904.00
2018-05-11T05:09:58.910Z,2000.00
2018-05-11T05:10:59.081Z,2064.00
2018-05-11T05:11:59.249Z,2076.00
2018-05-11T05:12:59.412Z,2088.00
2018-05-11T05:13:59.584Z,2092.00
2018-05-11T05:14:59.752Z,2112.00
2018-05-11T05:15:59.925Z,2168.00
2018-05-11T05:17:00.098Z,2188.00
2018-05-11T05:18:00.267Z,2188.00
2018-05-11T05:19:00.432Z,2236.00
2018-05-11T05:20:00.603Z,2300.00
2018-05-11T05:21:00.769Z,2364.00
2018-05-11T05:22:00.966Z,2424.00
2018-05-11T05:23:01.140Z,2492.00
2018-05-11T05:24:01.310Z,2536.00
2018-05-11T05:25:01.477Z,2584.00
2018-05-11T05:26:01.642Z,2676.00
2018-05-11T05:27:01.815Z,2772.00
2018-05-11T05:28:01.979Z,2884.00
2018-05-11T05:29:02.151Z,2972.00
2018-05-11T05:30:02.324Z,3056.00
2018-05-11T05:31:02.483Z,3164.00
2018-05-11T05:32:02.651Z,3300.00
2018-05-11T05:33:02.832Z,3404.00
2018-05-11T05:34:02.987Z,3424.00
2018-05-11T05:35:03.305Z,3280.00
2018-05-11T05:36:03.357Z,3236.00
2018-05-11T05:37:03.531Z,3176.00
2018-05-11T05:38:03.697Z,3220.00
2018-05-11T05:39:03.954Z,3336.00
2018-05-11T05:40:04.049Z,3524.00
2018-05-11T05:41:04.218Z,3512.00
2018-05-11T05:42:04.383Z,3496.00
2018-05-11T05:43:04.557Z,3492.00
2018-05-11T05:44:04.725Z,3604.00
2018-05-11T05:45:04.892Z,3832.00
2018-05-11T05:46:05.075Z,4020.00
2018-05-11T05:47:05.235Z,3956.00
2018-05-11T05:48:05.403Z,4012.00
2018-05-11T05:49:05.619Z,4040.00
2018-05-11T05:50:05.779Z,4088.00
2018-05-11T05:51:05.952Z,4172.00
2018-05-11T05:52:06.988Z,4212.00
2018-05-11T05:53:06.310Z,4300.00
2018-05-11T05:54:06.478Z,4332.00
2018-05-11T05:55:06.652Z,4260.00
2018-05-11T05:56:06.821Z,4108.00
2018-05-11T05:57:06.986Z,4156.00
2018-05-11T05:58:07.223Z,4280.00
2018-05-11T05:59:07.314Z,4456.00
2018-05-11T06:00:07.487Z,4704.00
2018-05-11T06:01:07.653Z,4896.00
2018-05-11T06:02:07.821Z,4932.00
2018-05-11T06:03:07.997Z,5136.00
2018-05-11T06:04:08.165Z,5240.00
2018-05-11T06:05:08.369Z,5452.00
2018-05-11T06:06:08.498Z,5760.00
2018-05-11T06:07:08.667Z,5932.00
2018-05-11T06:08:08.869Z,5948.00
2018-05-11T06:09:09.005Z,5956.00
2018-05-11T06:10:09.176Z,6228.00
2018-05-11T06:11:09.342Z,6216.00
2018-05-11T06:12:09.524Z,6032.00
2018-05-11T06:13:09.694Z,6188.00
2018-05-11T06:14:09.892Z,6336.00
2018-05-11T06:15:10.045Z,6336.00
2018-05-11T06:16:10.226Z,6580.00
2018-05-11T06:17:10.390Z,6884.00
2018-05-11T06:18:10.577Z,6884.00
2018-05-11T06:19:10.750Z,7200.00
2018-05-11T06:20:10.923Z,7476.00
2018-05-11T06:21:11.093Z,7276.00
2018-05-11T06:22:11.268Z,7292.00
2018-05-11T06:23:11.438Z,7496.00
2018-05-11T06:24:11.621Z,7744.00
2018-05-11T06:25:11.792Z,7828.00
2018-05-11T06:26:11.962Z,8328.00
2018-05-11T06:27:12.138Z,8556.00
2018-05-11T06:28:12.309Z,9028.00
2018-05-11T06:29:12.478Z,9592.00
2018-05-11T06:30:12.645Z,10156.00
2018-05-11T06:31:12.819Z,9412.00
2018-05-11T06:32:13.000Z,8692.00
2018-05-11T06:33:13.169Z,8336.00
2018-05-11T06:34:13.346Z,8260.00
2018-05-11T06:35:13.523Z,8088.00
2018-05-11T06:36:13.703Z,7264.00
2018-05-11T06:37:13.855Z,7024.00
2018-05-11T06:38:14.026Z,6776.00
2018-05-11T06:39:14.200Z,7264.00
2018-05-11T06:40:14.374Z,7180.00
2018-05-11T06:41:14.552Z,7712.00
2018-05-11T06:42:14.726Z,7492.00
2018-05-11T06:43:14.890Z,7408.00
2018-05-11T06:44:15.062Z,7468.00
2018-05-11T06:45:15.234Z,6936.00
2018-05-11T06:46:15.409Z,6576.00
2018-05-11T06:47:15.575Z,6312.00
2018-05-11T06:48:15.753Z,6228.00
2018-05-11T06:49:15.931Z,6156.00
2018-05-11T06:50:16.101Z,6404.00
2018-05-11T06:51:16.264Z,6920.00
2018-05-11T06:52:16.450Z,7704.00
2018-05-11T06:53:16.601Z,8556.00
2018-05-11T06:54:16.787Z,9064.00
2018-05-11T06:55:16.958Z,8524.00
2018-05-11T06:56:17.128Z,8184.00
2018-05-11T06:57:17.301Z,8276.00
2018-05-11T06:58:17.470Z,8468.00
2018-05-11T06:59:17.643Z,8276.00
2018-05-11T07:00:17.821Z,8024.00
2018-05-11T07:01:17.991Z,8320.00
2018-05-11T07:02:18.157Z,8056.00
2018-05-11T07:03:18.334Z,8144.00
2018-05-11T07:04:18.504Z,8284.00
2018-05-11T07:05:18.685Z,8348.00
2018-05-11T07:06:18.853Z,8260.00
2018-05-11T07:07:19.103Z,8216.00
2018-05-11T07:08:19.186Z,8068.00
2018-05-11T07:09:19.358Z,7956.00
2018-05-11T07:10:19.590Z,8292.00
2018-05-11T07:11:19.699Z,8128.00
2018-05-11T07:12:19.860Z,8744.00
2018-05-11T07:13:20.035Z,8992.00
2018-05-11T07:14:20.204Z,9128.00
2018-05-11T07:15:20.384Z,9120.00
2018-05-11T07:16:20.551Z,9268.00
2018-05-11T07:17:20.721Z,9904.00
2018-05-11T07:18:20.892Z,10688.00
2018-05-11T07:19:21.065Z,11640.00
2018-05-11T07:20:21.249Z,12584.00
2018-05-11T07:21:21.417Z,13508.00
2018-05-11T07:22:21.590Z,14284.00
2018-05-11T07:23:21.762Z,14112.00
2018-05-11T07:24:21.927Z,13224.00
2018-05-11T07:25:22.100Z,11828.00
2018-05-11T07:26:22.276Z,11368.00
2018-05-11T07:27:22.445Z,10856.00
2018-05-11T07:28:22.622Z,10264.00
2018-05-11T07:29:22.796Z,9820.00
2018-05-11T07:30:22.964Z,9672.00
2018-05-11T07:31:23.250Z,9380.00
2018-05-11T07:32:23.304Z,9452.00
2018-05-11T07:33:23.480Z,9672.00
2018-05-11T07:34:23.721Z,9720.00
2018-05-11T07:35:23.798Z,10108.00
2018-05-11T07:36:24.046Z,10932.00
2018-05-11T07:37:24.095Z,12200.00
2018-05-11T07:38:24.265Z,12868.00
2018-05-11T07:39:24.441Z,13444.00
2018-05-11T07:40:24.648Z,13876.00
2018-05-11T07:41:24.869Z,14020.00
2018-05-11T07:42:25.043Z,13904.00
2018-05-11T07:43:25.304Z,13928.00
2018-05-11T07:44:25.395Z,13744.00
2018-05-11T07:45:25.572Z,13748.00
2018-05-11T07:46:25.741Z,13192.00
2018-05-11T07:47:25.917Z,12632.00
2018-05-11T07:48:26.090Z,12340.00
2018-05-11T07:49:26.267Z,12312.00
2018-05-11T07:50:26.447Z,12180.00
2018-05-11T07:51:26.666Z,11392.00
2018-05-11T07:52:26.791Z,10804.00
2018-05-11T07:53:27.051Z,10688.00
2018-05-11T07:54:27.116Z,11720.00
2018-05-11T07:55:27.327Z,13420.00
2018-05-11T07:56:27.517Z,14560.00
2018-05-11T07:57:27.757Z,15488.00
2018-05-11T07:58:27.842Z,14564.00
2018-05-11T07:59:28.030Z,14000.00
2018-05-11T08:00:28.118Z,13288.00
2018-05-11T08:01:28.795Z,13568.00
2018-05-11T08:02:28.407Z,14824.00
2018-05-11T08:03:28.690Z,14628.00
2018-05-11T08:04:28.711Z,14320.00
2018-05-11T08:05:28.887Z,14216.00
2018-05-11T08:06:29.058Z,14112.00
2018-05-11T08:07:29.319Z,13476.00
2018-05-11T08:08:29.358Z,13232.00
2018-05-11T08:09:29.527Z,13044.00
2018-05-11T08:10:29.705Z,12756.00
2018-05-11T08:11:29.879Z,11672.00
2018-05-11T08:12:30.051Z,10932.00
2018-05-11T08:13:30.229Z,9956.00
2018-05-11T08:14:30.441Z,9216.00
2018-05-11T08:15:30.619Z,8848.00
2018-05-11T08:16:31.295Z,8676.00
2018-05-11T08:17:31.017Z,8608.00
2018-05-11T08:18:31.188Z,8664.00
2018-05-11T08:19:31.353Z,8628.00
2018-05-11T08:20:32.577Z,8512.00
2018-05-11T08:21:31.675Z,8644.00
2018-05-11T08:22:31.847Z,9024.00
2018-05-11T08:23:32.017Z,9168.00
2018-05-11T08:24:32.187Z,9208.00
2018-05-11T08:25:32.358Z,9152.00
2018-05-11T08:26:32.566Z,9272.00
2018-05-11T08:27:32.709Z,9692.00
2018-05-11T08:28:33.031Z,10512.00
2018-05-11T08:29:33.223Z,10896.00
2018-05-11T08:30:33.261Z,10544.00
2018-05-11T08:31:33.430Z,10232.00
2018-05-11T08:32:33.600Z,9676.00
2018-05-11T08:33:33.770Z,9244.00
2018-05-11T08:34:33.938Z,8972.00
2018-05-11T08:35:34.157Z,9400.00
2018-05-11T08:36:34.302Z,10492.00
2018-05-11T08:38:56.398Z,12516.00
2018-05-11T08:42:41.141Z,12360.00
2018-05-11T08:43:41.830Z,12256.00
2018-05-11T08:44:41.494Z,12244.00
2018-05-11T08:45:41.788Z,12256.00
2018-05-11T08:46:41.856Z,12304.00
2018-05-11T08:47:42.031Z,12744.00
2018-05-11T08:48:42.199Z,13908.00
2018-05-11T08:49:42.409Z,15468.00
2018-05-11T08:50:42.573Z,16352.00
2018-05-11T08:51:42.749Z,19648.00
2018-05-11T08:52:42.924Z,18688.00
2018-05-11T08:53:43.097Z,19328.00
2018-05-11T08:54:43.265Z,19456.00
2018-05-11T08:55:43.436Z,23424.00
2018-05-11T08:56:43.611Z,17920.00
2018-05-11T08:57:44.369Z,17280.00
2018-05-11T08:58:44.020Z,17824.00
2018-05-11T08:59:44.196Z,24704.00
2018-05-11T09:00:44.502Z,25888.00
2018-05-11T09:01:44.553Z,27328.00
2018-05-11T09:02:44.726Z,29568.00
2018-05-11T09:03:44.903Z,16320.00
2018-05-11T09:04:45.082Z,25568.00
2018-05-11T09:05:45.262Z,26656.00
2018-05-11T09:06:45.442Z,18080.00
2018-05-11T09:07:45.616Z,15848.00
2018-05-11T09:08:45.784Z,15856.00
2018-05-11T09:09:46.790Z,17952.00
2018-05-11T09:10:46.131Z,48320.00
2018-05-11T09:11:46.319Z,40576.00
2018-05-11T09:12:46.489Z,72736.00
2018-05-11T09:13:46.662Z,27680.00
2018-05-11T09:14:46.847Z,54496.00
2018-05-11T09:15:47.019Z,78592.00
2018-05-11T09:16:47.200Z,103104.00
2018-05-11T09:17:48.559Z,134368.00
2018-05-11T09:21:49.022Z,94272.00
2018-05-11T09:22:48.281Z,77056.00
2018-05-11T09:23:49.279Z,58752.00
2018-05-11T09:24:48.550Z,44448.00
2018-05-11T09:25:48.695Z,51488.00
2018-05-11T09:26:48.877Z,46176.00
2018-05-11T09:27:49.046Z,42272.00
2018-05-11T09:28:49.235Z,38592.00
2018-05-11T09:29:49.445Z,38048.00
2018-05-11T09:30:49.585Z,18112.00
2018-05-11T09:31:50.005Z,17216.00
2018-05-11T09:33:51.299Z,33760.00
2018-05-11T09:34:50.259Z,34304.00
2018-05-11T09:35:50.427Z,32928.00
2018-05-11T09:36:51.504Z,32096.00
2018-05-11T09:37:50.822Z,31616.00
2018-05-11T09:38:50.999Z,31424.00
2018-05-11T09:39:51.265Z,30976.00
2018-05-11T09:40:51.361Z,30560.00
2018-05-11T09:41:51.548Z,31232.00
2018-05-11T09:42:51.728Z,30784.00
2018-05-11T09:43:51.930Z,30016.00
2018-05-11T09:44:52.102Z,29696.00
2018-05-11T09:45:52.290Z,29664.00
2018-05-11T09:46:52.880Z,29792.00
2018-05-11T09:47:52.697Z,29728.00
2018-05-11T09:48:53.788Z,29568.00
2018-05-11T09:49:53.788Z,29728.00
2018-05-11T09:50:53.271Z,30048.00
2018-05-11T09:51:53.457Z,30176.00
2018-05-11T09:52:53.642Z,29728.00
2018-05-11T09:53:53.828Z,29760.00
2018-05-11T09:54:54.246Z,30080.00
2018-05-11T09:55:54.260Z,30336.00
2018-05-11T09:56:54.529Z,30304.00
2018-05-11T09:57:54.592Z,30144.00
2018-05-11T09:58:54.784Z,29920.00
2018-05-11T09:59:54.978Z,29504.00
2018-05-11T10:00:55.219Z,29632.00
2018-05-11T10:01:55.350Z,30208.00
2018-05-11T10:02:55.536Z,30912.00
2018-05-11T10:03:55.729Z,30784.00
2018-05-11T10:04:55.913Z,28576.00
2018-05-11T10:05:56.100Z,25536.00
2018-05-11T10:06:56.283Z,31296.00
2018-05-11T10:07:56.497Z,26752.00
2018-05-11T10:08:56.663Z,32608.00
2018-05-11T10:09:56.847Z,34176.00
2018-05-11T10:10:57.118Z,33440.00
2018-05-11T10:11:57.177Z,33728.00
2018-05-11T10:12:57.371Z,34176.00
2018-05-11T10:13:57.636Z,33600.00
2018-05-11T10:14:57.767Z,33792.00
2018-05-11T10:15:57.956Z,34272.00
2018-05-11T10:16:58.137Z,33984.00
2018-05-11T10:17:58.332Z,34496.00
2018-05-11T10:18:58.515Z,35776.00
2018-05-11T10:19:58.702Z,36352.00
2018-05-11T10:20:58.909Z,37440.00
2018-05-11T10:21:59.083Z,45632.00
2018-05-11T10:22:59.280Z,76064.00
2018-05-11T10:23:59.587Z,90112.00
2018-05-11T10:24:59.647Z,77344.00
2018-05-11T10:25:59.834Z,72800.00
2018-05-11T10:27:00.068Z,76896.00
2018-05-11T10:28:00.222Z,84064.00
2018-05-11T10:29:00.424Z,88576.00
2018-05-11T10:30:00.596Z,91168.00
2018-05-11T10:31:00.789Z,93568.00
2018-05-11T10:32:00.974Z,96160.00
2018-05-11T10:33:01.207Z,96928.00
2018-05-11T10:34:01.439Z,97184.00
2018-05-11T10:35:01.588Z,98336.00
2018-05-11T10:36:01.789Z,98944.00
2018-05-11T10:37:01.982Z,99584.00
2018-05-11T10:38:02.276Z,100544.00
2018-05-11T10:39:02.535Z,102112.00
2018-05-11T10:40:02.580Z,100064.00
2018-05-11T10:41:02.770Z,99168.00
2018-05-11T10:42:02.958Z,98176.00
2018-05-11T10:43:03.156Z,99520.00
2018-05-11T10:44:03.420Z,104032.00
2018-05-11T10:45:03.618Z,104544.00
2018-05-11T10:46:03.729Z,101312.00
2018-05-11T10:47:03.978Z,101376.00
2018-05-11T10:48:04.391Z,103072.00
2018-05-11T10:49:04.786Z,98848.00
2018-05-11T10:50:04.474Z,103744.00
2018-05-11T10:51:04.558Z,105056.00
2018-05-11T10:52:04.737Z,104000.00
2018-05-11T10:53:04.933Z,104704.00
2018-05-11T10:54:05.121Z,103680.00
2018-05-11T10:55:05.309Z,100448.00
2018-05-11T10:56:05.564Z,101408.00
2018-05-11T10:57:05.679Z,102304.00
2018-05-11T10:58:05.871Z,100896.00
2018-05-11T10:59:06.069Z,102720.00
2018-05-11T11:00:06.258Z,101952.00
2018-05-11T11:01:06.462Z,99200.00
2018-05-11T11:02:06.653Z,99840.00
2018-05-11T11:03:06.852Z,100320.00
2018-05-11T11:04:07.048Z,103616.00
2018-05-11T11:05:07.245Z,104576.00
2018-05-11T11:06:07.435Z,111136.00
2018-05-11T11:07:07.642Z,112864.00
2018-05-11T11:08:07.835Z,109280.00
2018-05-11T11:09:08.059Z,20960.00
2018-05-11T11:10:08.218Z,19040.00
2018-05-11T11:11:08.474Z,18560.00
2018-05-11T11:12:08.669Z,21088.00
2018-05-11T11:13:08.820Z,25184.00
2018-05-11T11:14:09.032Z,18528.00
2018-05-11T11:15:09.202Z,18304.00
2018-05-11T11:16:09.394Z,19744.00
2018-05-11T11:17:09.591Z,14796.00
2018-05-11T11:18:09.969Z,14604.00
2018-05-11T11:19:09.942Z,19008.00
2018-05-11T11:20:10.143Z,27520.00
2018-05-11T11:21:10.329Z,109216.00
2018-05-11T11:22:10.517Z,17120.00
2018-05-11T11:23:10.705Z,14928.00
2018-05-11T11:24:10.894Z,13776.00
2018-05-11T11:25:11.075Z,14068.00
2018-05-11T11:26:11.264Z,15940.00
2018-05-11T11:27:11.449Z,16332.00
2018-05-11T11:28:11.633Z,15136.00
2018-05-11T11:29:11.826Z,15096.00
2018-05-11T11:30:12.020Z,15104.00
2018-05-11T11:31:12.199Z,15524.00
2018-05-11T11:33:05.745Z,26656.00
2018-05-11T11:34:05.687Z,51232.00
2018-05-11T11:35:06.654Z,46656.00
2018-05-11T11:36:06.158Z,22752.00
2018-05-11T11:37:06.247Z,18880.00
2018-05-11T11:38:06.422Z,15012.00
2018-05-11T11:39:06.595Z,12096.00
2018-05-11T11:40:06.810Z,11496.00
2018-05-11T11:41:07.057Z,11456.00
2018-05-11T11:42:07.212Z,11168.00
2018-05-11T11:43:07.428Z,11864.00
2018-05-11T11:44:08.970Z,12732.00
2018-05-11T11:45:07.927Z,14276.00
2018-05-11T11:46:07.875Z,15892.00
2018-05-11T11:47:08.050Z,21696.00
2018-05-11T11:48:08.234Z,23264.00
2018-05-11T11:49:08.416Z,129792.00
2018-05-11T11:50:08.592Z,135552.00
2018-05-11T11:51:08.797Z,105184.00
2018-05-11T11:52:08.950Z,50880.00
2018-05-11T11:53:09.214Z,58816.00
2018-05-11T11:54:09.263Z,36800.00
2018-05-11T11:55:09.449Z,84096.00
2018-05-11T11:56:09.625Z,126432.00
2018-05-11T11:57:09.807Z,92160.00
2018-05-11T11:58:09.991Z,122720.00
2018-05-11T11:59:10.172Z,136032.00
2018-05-11T12:00:10.352Z,42592.00
2018-05-11T12:01:10.539Z,34976.00
2018-05-11T12:02:10.730Z,53888.00
2018-05-11T12:03:10.914Z,65024.00
2018-05-11T12:04:11.960Z,27616.00
2018-05-11T12:05:11.960Z,23008.00
2018-05-11T12:06:11.462Z,18944.00
2018-05-11T12:07:11.649Z,19488.00
2018-05-11T12:08:11.834Z,17792.00
2018-05-11T12:09:12.016Z,15212.00
2018-05-11T12:10:12.194Z,15456.00
2018-05-11T12:11:12.384Z,16416.00
2018-05-11T12:12:12.564Z,16544.00
2018-05-11T12:13:12.826Z,17824.00
2018-05-11T12:14:12.986Z,18400.00
2018-05-11T12:15:13.175Z,15580.00
2018-05-11T12:16:13.349Z,15132.00
2018-05-11T12:17:13.530Z,15280.00
2018-05-11T12:18:13.714Z,15900.00
2018-05-11T12:19:13.893Z,16832.00
2018-05-11T12:20:14.079Z,18880.00
2018-05-11T12:21:14.258Z,18176.00
2018-05-11T12:22:14.443Z,19744.00
2018-05-11T12:23:14.618Z,20960.00
2018-05-11T12:24:14.795Z,20768.00
2018-05-11T12:25:14.978Z,21824.00
2018-05-11T12:26:15.232Z,23328.00
2018-05-11T12:27:15.344Z,35520.00
2018-05-11T12:28:15.518Z,36608.00